sensor_id;sensor_type;location;lat;lon;timestamp;pressure;altitude;pressure_sealevel;temperature;humidity
84647;BME280;74876;52.404;16.896;2024-01-30T00:00:09;102100.0;;;2.06;78.05
84647;BME280;74876;52.404;16.896;2024-01-30T00:20:09;102103.0;;;1.91;78.03
84647;BME280;74876;52.404;16.896;2024-01-30T00:35:09;102107.0;;;1.91;77.62
84647;BME280;74876;52.404;16.896;2024-01-30T00:50:09;102102.0;;;1.82;77.77
84647;BME280;74876;52.404;16.896;2024-01-30T01:05:09;102103.0;;;1.69;77.91
84647;BME280;74876;52.404;16.896;2024-01-30T01:20:09;102086.0;;;1.66;77.5
84647;BME280;74876;52.404;16.896;2024-01-30T01:35:09;102092.0;;;1.62;77.63
84647;BME280;74876;52.404;16.896;2024-01-30T01:50:09;102088.0;;;1.54;77.62
84647;BME280;74876;52.404;16.896;2024-01-30T02:05:09;102091.0;;;1.52;77.49
84647;BME280;74876;52.404;16.896;2024-01-30T02:20:09;102086.0;;;1.49;77.39
84647;BME280;74876;52.404;16.896;2024-01-30T02:35:10;102087.0;;;1.45;77.54
84647;BME280;74876;52.404;16.896;2024-01-30T02:50:10;102079.0;;;1.41;77.69
84647;BME280;74876;52.404;16.896;2024-01-30T03:05:10;102073.0;;;1.28;77.92
84647;BME280;74876;52.404;16.896;2024-01-30T03:20:09;102057.0;;;1.18;78.0
84647;BME280;74876;52.404;16.896;2024-01-30T03:35:09;102057.0;;;1.23;77.64
84647;BME280;74876;52.404;16.896;2024-01-30T03:50:09;102053.0;;;1.23;77.38
84647;BME280;74876;52.404;16.896;2024-01-30T04:05:09;102062.0;;;1.25;77.54
84647;BME280;74876;52.404;16.896;2024-01-30T04:20:09;102070.0;;;1.2;77.71
84647;BME280;74876;52.404;16.896;2024-01-30T04:35:09;102073.0;;;1.14;77.94
84647;BME280;74876;52.404;16.896;2024-01-30T04:50:09;102069.0;;;1.15;77.63
84647;BME280;74876;52.404;16.896;2024-01-30T05:05:09;102063.0;;;1.11;77.54
84647;BME280;74876;52.404;16.896;2024-01-30T05:20:09;102076.0;;;1.08;77.37
84647;BME280;74876;52.404;16.896;2024-01-30T05:40:09;102075.0;;;1.03;77.68
84647;BME280;74876;52.404;16.896;2024-01-30T05:55:09;102073.0;;;0.9;78.01
84647;BME280;74876;52.404;16.896;2024-01-30T06:10:10;102077.0;;;0.88;78.14
84647;BME280;74876;52.404;16.896;2024-01-30T06:25:10;102074.0;;;0.92;78.08
84647;BME280;74876;52.404;16.896;2024-01-30T06:40:10;102075.0;;;0.9700001;78.2
84647;BME280;74876;52.404;16.896;2024-01-30T06:55:10;102070.0;;;1.02;78.28
84647;BME280;74876;52.404;16.896;2024-01-30T07:10:10;102070.0;;;1.16;77.86
84647;BME280;74876;52.404;16.896;2024-01-30T07:25:10;102076.0;;;1.34;77.34
84647;BME280;74876;52.404;16.896;2024-01-30T07:40:09;102077.0;;;1.6;76.42
84647;BME280;74876;52.404;16.896;2024-01-30T07:55:09;102078.0;;;1.96;75.49
84647;BME280;74876;52.404;16.896;2024-01-30T08:10:09;102081.0;;;2.28;74.58
84647;BME280;74876;52.404;16.896;2024-01-30T08:25:09;102082.0;;;2.66;73.35
84647;BME280;74876;52.404;16.896;2024-01-30T08:45:09;102072.0;;;3.27;71.79
84647;BME280;74876;52.404;16.896;2024-01-30T09:00:09;102076.0;;;3.61;70.79
84647;BME280;74876;52.404;16.896;2024-01-30T09:15:09;102072.0;;;3.95;69.89
84647;BME280;74876;52.404;16.896;2024-01-30T09:30:09;102062.0;;;4.33;68.9
84647;BME280;74876;52.404;16.896;2024-01-30T09:45:09;102051.0;;;4.78;67.15
84647;BME280;74876;52.404;16.896;2024-01-30T10:00:09;102036.0;;;5.16;66.92
84647;BME280;74876;52.404;16.896;2024-01-30T10:15:09;102026.0;;;5.68;64.47
84647;BME280;74876;52.404;16.896;2024-01-30T10:30:09;102021.0;;;6.45;62.46
84647;BME280;74876;52.404;16.896;2024-01-30T10:45:09;102004.0;;;8.05;57.62
84647;BME280;74876;52.404;16.896;2024-01-30T11:00:10;101999.0;;;8.93;54.2
84647;BME280;74876;52.404;16.896;2024-01-30T11:15:10;101991.0;;;10.26;50.65
84647;BME280;74876;52.404;16.896;2024-01-30T11:30:09;101965.0;;;10.55;49.72
84647;BME280;74876;52.404;16.896;2024-01-30T11:50:09;101935.0;;;11.68;47.92
84647;BME280;74876;52.404;16.896;2024-01-30T12:35:09;101910.0;;;12.85;45.08
84647;BME280;74876;52.404;16.896;2024-01-30T13:37:31;101852.0;;;14.88;67.28
84647;BME280;74876;52.404;16.896;2024-01-30T13:50:09;101857.0;;;17.08;37.11
84647;BME280;74876;52.404;16.896;2024-01-30T14:05:10;101847.0;;;15.32;39.32
84647;BME280;74876;52.404;16.896;2024-01-30T14:25:09;101838.0;;;14.43;41.65
84647;BME280;74876;52.404;16.896;2024-01-30T14:40:09;101825.0;;;13.11;42.94
84647;BME280;74876;52.404;16.896;2024-01-30T14:55:09;101857.0;;;11.34;48.28
84647;BME280;74876;52.404;16.896;2024-01-30T15:10:09;101859.0;;;9.81;53.9
84647;BME280;74876;52.404;16.896;2024-01-30T15:25:09;101861.0;;;8.93;57.47
84647;BME280;74876;52.404;16.896;2024-01-30T15:40:09;101854.0;;;8.03;60.72
84647;BME280;74876;52.404;16.896;2024-01-30T15:55:09;101841.0;;;7.48;62.77
84647;BME280;74876;52.404;16.896;2024-01-30T16:10:09;101837.0;;;7.08;64.66
84647;BME280;74876;52.404;16.896;2024-01-30T16:25:09;101825.0;;;6.76;66.04
84647;BME280;74876;52.404;16.896;2024-01-30T16:40:09;101839.0;;;6.52;66.96
84647;BME280;74876;52.404;16.896;2024-01-30T16:55:09;101832.0;;;6.26;67.69
84647;BME280;74876;52.404;16.896;2024-01-30T17:10:09;101824.0;;;6.07;68.09
84647;BME280;74876;52.404;16.896;2024-01-30T17:25:09;101806.0;;;5.93;68.22
84647;BME280;74876;52.404;16.896;2024-01-30T17:40:09;101812.0;;;5.86;68.29
84647;BME280;74876;52.404;16.896;2024-01-30T17:55:10;101816.0;;;5.75;68.69
84647;BME280;74876;52.404;16.896;2024-01-30T18:10:10;101815.0;;;5.57;69.09
84647;BME280;74876;52.404;16.896;2024-01-30T18:25:10;101814.0;;;5.5;69.52
84647;BME280;74876;52.404;16.896;2024-01-30T18:40:10;101816.0;;;5.44;69.85
84647;BME280;74876;52.404;16.896;2024-01-30T18:55:10;101811.0;;;5.36;69.62
84647;BME280;74876;52.404;16.896;2024-01-30T19:25:09;101815.0;;;5.28;68.2
84647;BME280;74876;52.404;16.896;2024-01-30T19:40:09;101804.0;;;5.47;65.89
84647;BME280;74876;52.404;16.896;2024-01-30T19:55:09;101808.0;;;5.5;65.36
84647;BME280;74876;52.404;16.896;2024-01-30T20:10:09;101822.0;;;5.34;65.79
84647;BME280;74876;52.404;16.896;2024-01-30T20:25:09;101833.0;;;5.34;65.81
84647;BME280;74876;52.404;16.896;2024-01-30T20:40:09;101820.0;;;5.27;65.92
84647;BME280;74876;52.404;16.896;2024-01-30T20:55:09;101829.0;;;5.19;66.51
84647;BME280;74876;52.404;16.896;2024-01-30T21:10:09;101817.0;;;5.07;67.06
84647;BME280;74876;52.404;16.896;2024-01-30T21:25:09;101811.0;;;5.02;67.46
84647;BME280;74876;52.404;16.896;2024-01-30T21:40:09;101822.0;;;4.91;68.08
84647;BME280;74876;52.404;16.896;2024-01-30T21:55:09;101816.0;;;4.88;68.61
84647;BME280;74876;52.404;16.896;2024-01-30T22:10:09;101812.0;;;4.78;69.34
84647;BME280;74876;52.404;16.896;2024-01-30T22:25:09;101826.0;;;4.65;70.24
84647;BME280;74876;52.404;16.896;2024-01-30T22:40:09;101834.0;;;4.58;71.23
84647;BME280;74876;52.404;16.896;2024-01-30T22:55:09;101844.0;;;4.6;71.91
84647;BME280;74876;52.404;16.896;2024-01-30T23:10:09;101826.0;;;4.55;72.56
84647;BME280;74876;52.404;16.896;2024-01-30T23:25:09;101840.0;;;4.6;72.94
84647;BME280;74876;52.404;16.896;2024-01-30T23:40:09;101836.0;;;4.74;73.09
84647;BME280;74876;52.404;16.896;2024-01-30T23:55:10;101818.0;;;4.76;73.3
